sensor_id;sensor_type;location;lat;lon;timestamp;P1;durP1;ratioP1;P2;durP2;ratioP2
41512;SDS011;27244;59.940;30.280;2023-03-23T00:01:00;4.45;;;3.22;;
41512;SDS011;27244;59.940;30.280;2023-03-23T00:03:27;4.13;;;3.25;;
41512;SDS011;27244;59.940;30.280;2023-03-23T00:05:57;6.10;;;3.60;;
41512;SDS011;27244;59.940;30.280;2023-03-23T00:08:31;4.93;;;3.53;;
41512;SDS011;27244;59.940;30.280;2023-03-23T00:10:59;6.47;;;3.50;;
41512;SDS011;27244;59.940;30.280;2023-03-23T00:13:27;4.65;;;3.47;;
41512;SDS011;27244;59.940;30.280;2023-03-23T00:15:55;6.70;;;3.70;;
41512;SDS011;27244;59.940;30.280;2023-03-23T00:18:23;4.35;;;3.30;;
41512;SDS011;27244;59.940;30.280;2023-03-23T00:20:51;5.60;;;3.55;;
41512;SDS011;27244;59.940;30.280;2023-03-23T00:23:20;5.47;;;3.38;;
41512;SDS011;27244;59.940;30.280;2023-03-23T00:25:50;4.45;;;3.28;;
41512;SDS011;27244;59.940;30.280;2023-03-23T00:28:22;4.05;;;3.30;;
41512;SDS011;27244;59.940;30.280;2023-03-23T00:30:56;5.18;;;3.67;;
41512;SDS011;27244;59.940;30.280;2023-03-23T00:33:24;4.78;;;3.30;;
41512;SDS011;27244;59.940;30.280;2023-03-23T00:35:53;4.28;;;3.33;;
41512;SDS011;27244;59.940;30.280;2023-03-23T00:38:21;5.00;;;2.95;;
41512;SDS011;27244;59.940;30.280;2023-03-23T00:40:50;4.90;;;3.13;;
41512;SDS011;27244;59.940;30.280;2023-03-23T00:43:18;4.82;;;2.90;;
41512;SDS011;27244;59.940;30.280;2023-03-23T00:45:45;3.83;;;2.92;;
41512;SDS011;27244;59.940;30.280;2023-03-23T00:48:17;4.72;;;2.65;;
41512;SDS011;27244;59.940;30.280;2023-03-23T00:50:44;4.10;;;2.78;;
41512;SDS011;27244;59.940;30.280;2023-03-23T00:53:11;4.43;;;3.10;;
41512;SDS011;27244;59.940;30.280;2023-03-23T00:55:40;6.97;;;2.72;;
41512;SDS011;27244;59.940;30.280;2023-03-23T00:58:08;3.88;;;2.60;;
41512;SDS011;27244;59.940;30.280;2023-03-23T01:00:37;4.38;;;3.15;;
41512;SDS011;27244;59.940;30.280;2023-03-23T01:03:04;7.72;;;2.92;;
41512;SDS011;27244;59.940;30.280;2023-03-23T01:05:33;3.85;;;2.80;;
41512;SDS011;27244;59.940;30.280;2023-03-23T01:08:01;3.38;;;2.50;;
41512;SDS011;27244;59.940;30.280;2023-03-23T01:10:29;3.63;;;2.55;;
41512;SDS011;27244;59.940;30.280;2023-03-23T01:12:58;4.47;;;2.88;;
41512;SDS011;27244;59.940;30.280;2023-03-23T01:15:27;6.10;;;2.58;;
41512;SDS011;27244;59.940;30.280;2023-03-23T01:17:55;4.00;;;2.55;;
41512;SDS011;27244;59.940;30.280;2023-03-23T01:20:23;4.15;;;2.75;;
41512;SDS011;27244;59.940;30.280;2023-03-23T01:22:54;3.47;;;2.42;;
41512;SDS011;27244;59.940;30.280;2023-03-23T01:25:26;4.05;;;2.53;;
41512;SDS011;27244;59.940;30.280;2023-03-23T01:27:54;3.42;;;2.78;;
41512;SDS011;27244;59.940;30.280;2023-03-23T01:30:21;3.40;;;2.40;;
41512;SDS011;27244;59.940;30.280;2023-03-23T01:32:50;3.55;;;2.72;;
41512;SDS011;27244;59.940;30.280;2023-03-23T01:35:18;2.95;;;2.60;;
41512;SDS011;27244;59.940;30.280;2023-03-23T01:37:46;3.25;;;2.70;;
41512;SDS011;27244;59.940;30.280;2023-03-23T01:40:14;4.28;;;2.40;;
41512;SDS011;27244;59.940;30.280;2023-03-23T01:42:43;4.40;;;2.78;;
41512;SDS011;27244;59.940;30.280;2023-03-23T01:47:49;3.45;;;2.05;;
41512;SDS011;27244;59.940;30.280;2023-03-23T01:50:23;5.45;;;2.67;;
41512;SDS011;27244;59.940;30.280;2023-03-23T01:52:52;3.28;;;2.40;;
41512;SDS011;27244;59.940;30.280;2023-03-23T01:55:23;2.53;;;2.28;;
41512;SDS011;27244;59.940;30.280;2023-03-23T01:57:53;4.18;;;2.22;;
41512;SDS011;27244;59.940;30.280;2023-03-23T02:00:21;3.80;;;2.28;;
41512;SDS011;27244;59.940;30.280;2023-03-23T02:02:51;4.15;;;2.42;;
41512;SDS011;27244;59.940;30.280;2023-03-23T02:05:24;3.03;;;2.40;;
41512;SDS011;27244;59.940;30.280;2023-03-23T02:07:59;3.45;;;3.03;;
41512;SDS011;27244;59.940;30.280;2023-03-23T02:10:32;3.55;;;2.00;;
41512;SDS011;27244;59.940;30.280;2023-03-23T02:13:00;2.40;;;2.03;;
41512;SDS011;27244;59.940;30.280;2023-03-23T02:15:32;2.90;;;2.22;;
41512;SDS011;27244;59.940;30.280;2023-03-23T02:18:09;3.53;;;2.38;;
41512;SDS011;27244;59.940;30.280;2023-03-23T02:20:52;2.55;;;2.10;;
41512;SDS011;27244;59.940;30.280;2023-03-23T02:23:41;2.65;;;1.80;;
41512;SDS011;27244;59.940;30.280;2023-03-23T02:26:28;3.03;;;2.10;;
41512;SDS011;27244;59.940;30.280;2023-03-23T02:29:18;2.65;;;2.08;;
41512;SDS011;27244;59.940;30.280;2023-03-23T02:32:12;3.25;;;2.28;;
41512;SDS011;27244;59.940;30.280;2023-03-23T02:34:50;3.70;;;2.20;;
41512;SDS011;27244;59.940;30.280;2023-03-23T02:37:20;2.85;;;2.40;;
41512;SDS011;27244;59.940;30.280;2023-03-23T02:39:53;3.25;;;2.30;;
41512;SDS011;27244;59.940;30.280;2023-03-23T02:44:52;3.63;;;2.72;;
41512;SDS011;27244;59.940;30.280;2023-03-23T02:47:21;3.42;;;2.22;;
41512;SDS011;27244;59.940;30.280;2023-03-23T02:49:54;3.92;;;2.03;;
41512;SDS011;27244;59.940;30.280;2023-03-23T02:52:25;3.00;;;2.10;;
41512;SDS011;27244;59.940;30.280;2023-03-23T02:54:55;3.87;;;2.10;;
41512;SDS011;27244;59.940;30.280;2023-03-23T02:57:25;2.90;;;2.10;;
41512;SDS011;27244;59.940;30.280;2023-03-23T02:59:56;2.88;;;2.00;;
41512;SDS011;27244;59.940;30.280;2023-03-23T03:02:23;2.45;;;2.05;;
41512;SDS011;27244;59.940;30.280;2023-03-23T03:04:55;2.42;;;2.00;;
41512;SDS011;27244;59.940;30.280;2023-03-23T03:07:36;2.58;;;2.00;;
41512;SDS011;27244;59.940;30.280;2023-03-23T03:10:26;2.40;;;2.20;;
41512;SDS011;27244;59.940;30.280;2023-03-23T03:13:00;2.35;;;1.77;;
41512;SDS011;27244;59.940;30.280;2023-03-23T03:15:34;2.45;;;2.08;;
41512;SDS011;27244;59.940;30.280;2023-03-23T03:18:06;2.05;;;1.83;;
41512;SDS011;27244;59.940;30.280;2023-03-23T03:20:40;2.63;;;1.83;;
41512;SDS011;27244;59.940;30.280;2023-03-23T03:23:11;1.90;;;1.65;;
41512;SDS011;27244;59.940;30.280;2023-03-23T03:25:42;2.38;;;1.70;;
41512;SDS011;27244;59.940;30.280;2023-03-23T03:28:17;1.90;;;1.70;;
41512;SDS011;27244;59.940;30.280;2023-03-23T03:30:49;2.58;;;1.73;;
41512;SDS011;27244;59.940;30.280;2023-03-23T03:33:22;1.88;;;1.52;;
41512;SDS011;27244;59.940;30.280;2023-03-23T03:35:54;2.28;;;1.90;;
41512;SDS011;27244;59.940;30.280;2023-03-23T03:38:23;2.53;;;1.67;;
41512;SDS011;27244;59.940;30.280;2023-03-23T03:40:51;2.17;;;1.88;;
41512;SDS011;27244;59.940;30.280;2023-03-23T03:43:19;1.77;;;1.63;;
41512;SDS011;27244;59.940;30.280;2023-03-23T03:45:46;2.20;;;1.77;;
41512;SDS011;27244;59.940;30.280;2023-03-23T03:48:13;2.88;;;1.70;;
41512;SDS011;27244;59.940;30.280;2023-03-23T03:50:40;2.17;;;1.50;;
41512;SDS011;27244;59.940;30.280;2023-03-23T03:53:09;2.30;;;1.80;;
41512;SDS011;27244;59.940;30.280;2023-03-23T03:55:37;2.05;;;1.85;;
41512;SDS011;27244;59.940;30.280;2023-03-23T04:00:58;2.55;;;1.52;;
41512;SDS011;27244;59.940;30.280;2023-03-23T04:03:30;1.95;;;1.52;;
41512;SDS011;27244;59.940;30.280;2023-03-23T04:06:04;1.67;;;1.45;;
41512;SDS011;27244;59.940;30.280;2023-03-23T04:08:35;2.22;;;1.48;;
41512;SDS011;27244;59.940;30.280;2023-03-23T04:11:03;2.60;;;1.38;;
41512;SDS011;27244;59.940;30.280;2023-03-23T04:13:31;3.20;;;1.75;;
41512;SDS011;27244;59.940;30.280;2023-03-23T04:16:15;3.95;;;1.70;;
41512;SDS011;27244;59.940;30.280;2023-03-23T04:18:44;1.80;;;1.58;;
41512;SDS011;27244;59.940;30.280;2023-03-23T04:21:13;1.55;;;1.45;;
41512;SDS011;27244;59.940;30.280;2023-03-23T04:23:44;2.17;;;1.70;;
41512;SDS011;27244;59.940;30.280;2023-03-23T04:26:13;3.72;;;1.67;;
41512;SDS011;27244;59.940;30.280;2023-03-23T04:28:46;2.45;;;1.48;;
41512;SDS011;27244;59.940;30.280;2023-03-23T04:31:33;2.35;;;1.45;;
41512;SDS011;27244;59.940;30.280;2023-03-23T04:34:21;3.13;;;1.48;;
41512;SDS011;27244;59.940;30.280;2023-03-23T04:36:51;3.08;;;1.63;;
41512;SDS011;27244;59.940;30.280;2023-03-23T04:39:24;2.42;;;1.40;;
41512;SDS011;27244;59.940;30.280;2023-03-23T04:41:55;2.75;;;1.80;;
41512;SDS011;27244;59.940;30.280;2023-03-23T04:44:44;2.10;;;1.52;;
41512;SDS011;27244;59.940;30.280;2023-03-23T04:47:19;2.35;;;1.20;;
41512;SDS011;27244;59.940;30.280;2023-03-23T04:49:53;1.95;;;1.48;;
41512;SDS011;27244;59.940;30.280;2023-03-23T04:52:28;2.17;;;1.40;;
41512;SDS011;27244;59.940;30.280;2023-03-23T04:54:59;2.10;;;1.70;;
41512;SDS011;27244;59.940;30.280;2023-03-23T04:57:27;2.00;;;1.60;;
41512;SDS011;27244;59.940;30.280;2023-03-23T05:00:26;1.95;;;1.48;;
41512;SDS011;27244;59.940;30.280;2023-03-23T05:02:55;2.03;;;1.60;;
41512;SDS011;27244;59.940;30.280;2023-03-23T05:05:25;2.28;;;1.70;;
41512;SDS011;27244;59.940;30.280;2023-03-23T05:07:55;2.30;;;1.88;;
41512;SDS011;27244;59.940;30.280;2023-03-23T05:10:27;1.67;;;1.40;;
41512;SDS011;27244;59.940;30.280;2023-03-23T05:13:02;2.25;;;1.70;;
41512;SDS011;27244;59.940;30.280;2023-03-23T05:15:29;2.75;;;1.63;;
41512;SDS011;27244;59.940;30.280;2023-03-23T05:17:57;2.85;;;2.00;;
41512;SDS011;27244;59.940;30.280;2023-03-23T05:20:24;2.95;;;2.10;;
41512;SDS011;27244;59.940;30.280;2023-03-23T05:22:57;3.35;;;2.20;;
41512;SDS011;27244;59.940;30.280;2023-03-23T05:25:33;4.38;;;2.47;;
41512;SDS011;27244;59.940;30.280;2023-03-23T05:28:10;3.78;;;2.60;;
41512;SDS011;27244;59.940;30.280;2023-03-23T05:30:41;4.53;;;2.70;;
41512;SDS011;27244;59.940;30.280;2023-03-23T05:33:11;3.90;;;2.67;;
41512;SDS011;27244;59.940;30.280;2023-03-23T05:35:48;4.57;;;2.75;;
41512;SDS011;27244;59.940;30.280;2023-03-23T05:38:19;4.07;;;2.75;;
41512;SDS011;27244;59.940;30.280;2023-03-23T05:40:49;4.53;;;3.08;;
41512;SDS011;27244;59.940;30.280;2023-03-23T05:43:24;4.57;;;3.05;;
41512;SDS011;27244;59.940;30.280;2023-03-23T05:46:10;4.82;;;3.60;;
41512;SDS011;27244;59.940;30.280;2023-03-23T05:48:38;5.10;;;3.40;;
41512;SDS011;27244;59.940;30.280;2023-03-23T05:51:10;5.30;;;3.38;;
41512;SDS011;27244;59.940;30.280;2023-03-23T05:53:41;5.72;;;3.38;;
41512;SDS011;27244;59.940;30.280;2023-03-23T05:56:11;6.55;;;3.30;;
41512;SDS011;27244;59.940;30.280;2023-03-23T05:59:01;5.05;;;2.90;;
41512;SDS011;27244;59.940;30.280;2023-03-23T06:01:32;5.23;;;3.10;;
41512;SDS011;27244;59.940;30.280;2023-03-23T06:03:59;5.22;;;3.00;;
41512;SDS011;27244;59.940;30.280;2023-03-23T06:06:46;4.00;;;3.20;;
41512;SDS011;27244;59.940;30.280;2023-03-23T06:09:14;5.47;;;3.05;;
41512;SDS011;27244;59.940;30.280;2023-03-23T06:12:02;4.78;;;2.92;;
41512;SDS011;27244;59.940;30.280;2023-03-23T06:14:52;5.20;;;2.80;;
41512;SDS011;27244;59.940;30.280;2023-03-23T06:17:27;4.72;;;2.50;;
41512;SDS011;27244;59.940;30.280;2023-03-23T06:19:54;4.72;;;2.90;;
41512;SDS011;27244;59.940;30.280;2023-03-23T06:22:21;4.05;;;2.70;;
41512;SDS011;27244;59.940;30.280;2023-03-23T06:25:17;4.78;;;2.42;;
41512;SDS011;27244;59.940;30.280;2023-03-23T06:27:46;7.72;;;2.92;;
41512;SDS011;27244;59.940;30.280;2023-03-23T06:30:14;4.72;;;2.33;;
41512;SDS011;27244;59.940;30.280;2023-03-23T06:32:42;4.35;;;2.33;;
41512;SDS011;27244;59.940;30.280;2023-03-23T06:35:12;4.60;;;2.70;;
41512;SDS011;27244;59.940;30.280;2023-03-23T06:37:54;3.30;;;2.30;;
41512;SDS011;27244;59.940;30.280;2023-03-23T06:40:37;5.13;;;2.20;;
41512;SDS011;27244;59.940;30.280;2023-03-23T06:43:05;4.30;;;2.40;;
41512;SDS011;27244;59.940;30.280;2023-03-23T06:45:51;4.70;;;2.30;;
41512;SDS011;27244;59.940;30.280;2023-03-23T06:48:44;3.28;;;2.10;;
41512;SDS011;27244;59.940;30.280;2023-03-23T06:51:16;5.00;;;2.30;;
41512;SDS011;27244;59.940;30.280;2023-03-23T06:53:47;3.00;;;2.00;;
41512;SDS011;27244;59.940;30.280;2023-03-23T06:56:15;3.67;;;2.17;;
41512;SDS011;27244;59.940;30.280;2023-03-23T06:58:44;4.25;;;2.28;;
41512;SDS011;27244;59.940;30.280;2023-03-23T07:01:13;3.53;;;2.30;;
41512;SDS011;27244;59.940;30.280;2023-03-23T07:03:49;4.20;;;1.90;;
41512;SDS011;27244;59.940;30.280;2023-03-23T07:06:24;3.78;;;2.20;;
41512;SDS011;27244;59.940;30.280;2023-03-23T07:08:56;4.50;;;1.80;;
41512;SDS011;27244;59.940;30.280;2023-03-23T07:11:26;4.72;;;2.10;;
41512;SDS011;27244;59.940;30.280;2023-03-23T07:13:57;3.75;;;1.80;;
41512;SDS011;27244;59.940;30.280;2023-03-23T07:16:24;3.40;;;1.70;;
41512;SDS011;27244;59.940;30.280;2023-03-23T07:18:52;3.60;;;1.85;;
41512;SDS011;27244;59.940;30.280;2023-03-23T07:21:19;4.35;;;1.98;;
41512;SDS011;27244;59.940;30.280;2023-03-23T07:23:47;4.20;;;1.70;;
41512;SDS011;27244;59.940;30.280;2023-03-23T07:26:26;5.10;;;1.70;;
41512;SDS011;27244;59.940;30.280;2023-03-23T07:28:54;5.25;;;1.92;;
41512;SDS011;27244;59.940;30.280;2023-03-23T07:31:28;7.28;;;1.77;;
41512;SDS011;27244;59.940;30.280;2023-03-23T07:33:56;5.47;;;1.90;;
41512;SDS011;27244;59.940;30.280;2023-03-23T07:36:30;3.03;;;1.73;;
41512;SDS011;27244;59.940;30.280;2023-03-23T07:38:58;5.15;;;1.98;;
41512;SDS011;27244;59.940;30.280;2023-03-23T07:41:26;2.88;;;2.42;;
41512;SDS011;27244;59.940;30.280;2023-03-23T07:43:54;3.47;;;2.08;;
41512;SDS011;27244;59.940;30.280;2023-03-23T07:46:31;3.50;;;2.72;;
41512;SDS011;27244;59.940;30.280;2023-03-23T07:49:19;4.38;;;2.90;;
41512;SDS011;27244;59.940;30.280;2023-03-23T07:51:59;3.55;;;2.80;;
41512;SDS011;27244;59.940;30.280;2023-03-23T07:54:28;5.35;;;2.95;;
41512;SDS011;27244;59.940;30.280;2023-03-23T07:57:03;3.72;;;3.30;;
41512;SDS011;27244;59.940;30.280;2023-03-23T07:59:36;4.35;;;3.83;;
41512;SDS011;27244;59.940;30.280;2023-03-23T08:02:04;5.32;;;3.25;;
41512;SDS011;27244;59.940;30.280;2023-03-23T08:04:38;7.00;;;3.63;;
41512;SDS011;27244;59.940;30.280;2023-03-23T08:07:28;6.20;;;3.95;;
41512;SDS011;27244;59.940;30.280;2023-03-23T08:10:22;6.30;;;3.67;;
41512;SDS011;27244;59.940;30.280;2023-03-23T08:13:00;4.30;;;3.80;;
41512;SDS011;27244;59.940;30.280;2023-03-23T08:15:50;5.38;;;4.35;;
41512;SDS011;27244;59.940;30.280;2023-03-23T08:18:25;5.68;;;4.53;;
41512;SDS011;27244;59.940;30.280;2023-03-23T08:21:22;5.55;;;4.10;;
41512;SDS011;27244;59.940;30.280;2023-03-23T08:24:08;5.30;;;3.63;;
41512;SDS011;27244;59.940;30.280;2023-03-23T08:26:49;5.32;;;3.35;;
41512;SDS011;27244;59.940;30.280;2023-03-23T08:29:43;5.80;;;3.70;;
41512;SDS011;27244;59.940;30.280;2023-03-23T08:32:30;9.55;;;3.53;;
41512;SDS011;27244;59.940;30.280;2023-03-23T08:35:15;7.78;;;3.45;;
41512;SDS011;27244;59.940;30.280;2023-03-23T08:38:03;8.70;;;3.30;;
41512;SDS011;27244;59.940;30.280;2023-03-23T08:40:46;5.13;;;3.60;;
41512;SDS011;27244;59.940;30.280;2023-03-23T08:43:49;4.45;;;3.15;;
41512;SDS011;27244;59.940;30.280;2023-03-23T08:46:29;5.38;;;3.28;;
41512;SDS011;27244;59.940;30.280;2023-03-23T08:49:05;4.63;;;3.42;;
41512;SDS011;27244;59.940;30.280;2023-03-23T08:51:33;5.00;;;3.10;;
41512;SDS011;27244;59.940;30.280;2023-03-23T08:54:29;3.80;;;3.15;;
41512;SDS011;27244;59.940;30.280;2023-03-23T08:57:24;5.72;;;3.00;;
41512;SDS011;27244;59.940;30.280;2023-03-23T09:00:11;4.15;;;3.10;;
41512;SDS011;27244;59.940;30.280;2023-03-23T09:03:01;5.13;;;2.90;;
41512;SDS011;27244;59.940;30.280;2023-03-23T09:05:58;4.30;;;3.25;;
41512;SDS011;27244;59.940;30.280;2023-03-23T09:08:36;3.03;;;2.72;;
41512;SDS011;27244;59.940;30.280;2023-03-23T09:11:04;3.40;;;2.97;;
41512;SDS011;27244;59.940;30.280;2023-03-23T09:13:33;3.13;;;2.63;;
41512;SDS011;27244;59.940;30.280;2023-03-23T09:16:01;4.07;;;2.88;;
41512;SDS011;27244;59.940;30.280;2023-03-23T09:18:29;4.57;;;2.83;;
41512;SDS011;27244;59.940;30.280;2023-03-23T09:20:56;3.20;;;2.67;;
41512;SDS011;27244;59.940;30.280;2023-03-23T09:23:23;4.88;;;2.67;;
41512;SDS011;27244;59.940;30.280;2023-03-23T09:25:52;2.88;;;2.50;;
41512;SDS011;27244;59.940;30.280;2023-03-23T09:28:19;3.53;;;3.20;;
41512;SDS011;27244;59.940;30.280;2023-03-23T09:30:47;3.40;;;2.78;;
41512;SDS011;27244;59.940;30.280;2023-03-23T09:33:15;3.15;;;2.85;;
41512;SDS011;27244;59.940;30.280;2023-03-23T09:35:42;3.60;;;2.75;;
41512;SDS011;27244;59.940;30.280;2023-03-23T09:38:09;3.78;;;2.50;;
41512;SDS011;27244;59.940;30.280;2023-03-23T09:40:39;2.72;;;2.53;;
41512;SDS011;27244;59.940;30.280;2023-03-23T09:43:21;2.85;;;2.60;;
41512;SDS011;27244;59.940;30.280;2023-03-23T09:48:29;3.83;;;2.75;;
41512;SDS011;27244;59.940;30.280;2023-03-23T09:51:07;3.22;;;2.42;;
41512;SDS011;27244;59.940;30.280;2023-03-23T09:53:42;3.08;;;2.30;;
41512;SDS011;27244;59.940;30.280;2023-03-23T09:56:15;3.75;;;2.75;;
41512;SDS011;27244;59.940;30.280;2023-03-23T09:58:46;2.95;;;2.22;;
41512;SDS011;27244;59.940;30.280;2023-03-23T10:01:20;2.88;;;2.50;;
41512;SDS011;27244;59.940;30.280;2023-03-23T10:03:51;3.42;;;2.80;;
41512;SDS011;27244;59.940;30.280;2023-03-23T10:06:26;2.40;;;2.20;;
41512;SDS011;27244;59.940;30.280;2023-03-23T10:08:54;2.67;;;2.30;;
41512;SDS011;27244;59.940;30.280;2023-03-23T10:11:27;3.15;;;2.38;;
41512;SDS011;27244;59.940;30.280;2023-03-23T10:16:55;2.50;;;2.25;;
41512;SDS011;27244;59.940;30.280;2023-03-23T10:19:31;2.80;;;2.40;;
41512;SDS011;27244;59.940;30.280;2023-03-23T10:22:03;2.70;;;1.90;;
41512;SDS011;27244;59.940;30.280;2023-03-23T10:24:34;3.07;;;2.17;;
41512;SDS011;27244;59.940;30.280;2023-03-23T10:27:09;2.53;;;2.30;;
41512;SDS011;27244;59.940;30.280;2023-03-23T10:29:46;3.72;;;2.70;;
41512;SDS011;27244;59.940;30.280;2023-03-23T10:32:20;3.63;;;2.60;;
41512;SDS011;27244;59.940;30.280;2023-03-23T10:34:50;3.58;;;2.80;;
41512;SDS011;27244;59.940;30.280;2023-03-23T10:37:21;7.25;;;3.53;;
41512;SDS011;27244;59.940;30.280;2023-03-23T10:39:51;4.82;;;3.70;;
41512;SDS011;27244;59.940;30.280;2023-03-23T10:42:21;5.80;;;4.18;;
41512;SDS011;27244;59.940;30.280;2023-03-23T10:44:51;6.22;;;4.53;;
41512;SDS011;27244;59.940;30.280;2023-03-23T10:47:20;7.32;;;5.30;;
41512;SDS011;27244;59.940;30.280;2023-03-23T10:49:48;5.85;;;4.80;;
41512;SDS011;27244;59.940;30.280;2023-03-23T10:52:24;5.78;;;4.82;;
41512;SDS011;27244;59.940;30.280;2023-03-23T10:54:55;6.65;;;4.90;;
41512;SDS011;27244;59.940;30.280;2023-03-23T10:57:26;6.13;;;4.90;;
41512;SDS011;27244;59.940;30.280;2023-03-23T10:59:59;7.05;;;4.93;;
41512;SDS011;27244;59.940;30.280;2023-03-23T11:02:35;5.97;;;4.65;;
41512;SDS011;27244;59.940;30.280;2023-03-23T11:05:07;6.43;;;4.97;;
41512;SDS011;27244;59.940;30.280;2023-03-23T11:07:47;7.45;;;5.43;;
41512;SDS011;27244;59.940;30.280;2023-03-23T11:10:20;9.05;;;5.70;;
41512;SDS011;27244;59.940;30.280;2023-03-23T11:12:49;8.23;;;5.28;;
41512;SDS011;27244;59.940;30.280;2023-03-23T11:15:30;10.02;;;5.90;;
41512;SDS011;27244;59.940;30.280;2023-03-23T11:20:27;12.35;;;8.38;;
41512;SDS011;27244;59.940;30.280;2023-03-23T11:23:01;8.55;;;6.88;;
41512;SDS011;27244;59.940;30.280;2023-03-23T11:25:46;12.10;;;9.07;;
41512;SDS011;27244;59.940;30.280;2023-03-23T11:28:18;16.92;;;11.98;;
41512;SDS011;27244;59.940;30.280;2023-03-23T11:30:47;16.92;;;13.70;;
41512;SDS011;27244;59.940;30.280;2023-03-23T11:33:14;15.82;;;12.52;;
41512;SDS011;27244;59.940;30.280;2023-03-23T11:35:43;17.17;;;12.20;;
41512;SDS011;27244;59.940;30.280;2023-03-23T11:38:15;16.60;;;12.07;;
41512;SDS011;27244;59.940;30.280;2023-03-23T11:40:47;17.73;;;11.77;;
41512;SDS011;27244;59.940;30.280;2023-03-23T11:43:18;14.07;;;9.48;;
41512;SDS011;27244;59.940;30.280;2023-03-23T11:48:20;13.07;;;9.48;;
41512;SDS011;27244;59.940;30.280;2023-03-23T11:50:54;13.15;;;9.45;;
41512;SDS011;27244;59.940;30.280;2023-03-23T11:53:30;11.50;;;8.50;;
41512;SDS011;27244;59.940;30.280;2023-03-23T11:56:09;13.20;;;8.38;;
41512;SDS011;27244;59.940;30.280;2023-03-23T11:58:41;10.68;;;7.80;;
41512;SDS011;27244;59.940;30.280;2023-03-23T12:01:13;9.52;;;7.43;;
41512;SDS011;27244;59.940;30.280;2023-03-23T12:03:58;11.77;;;7.05;;
41512;SDS011;27244;59.940;30.280;2023-03-23T12:06:34;10.73;;;6.93;;
41512;SDS011;27244;59.940;30.280;2023-03-23T12:09:12;10.70;;;7.00;;
41512;SDS011;27244;59.940;30.280;2023-03-23T12:11:52;8.38;;;6.35;;
41512;SDS011;27244;59.940;30.280;2023-03-23T12:14:29;9.98;;;6.65;;
41512;SDS011;27244;59.940;30.280;2023-03-23T12:17:07;11.30;;;6.20;;
41512;SDS011;27244;59.940;30.280;2023-03-23T12:19:42;9.35;;;6.05;;
41512;SDS011;27244;59.940;30.280;2023-03-23T12:22:23;7.32;;;5.70;;
41512;SDS011;27244;59.940;30.280;2023-03-23T12:25:04;10.40;;;5.90;;
41512;SDS011;27244;59.940;30.280;2023-03-23T12:27:44;7.80;;;5.35;;
41512;SDS011;27244;59.940;30.280;2023-03-23T12:30:21;8.70;;;5.75;;
41512;SDS011;27244;59.940;30.280;2023-03-23T12:33:08;7.75;;;4.70;;
41512;SDS011;27244;59.940;30.280;2023-03-23T12:35:46;7.25;;;5.53;;
41512;SDS011;27244;59.940;30.280;2023-03-23T12:41:16;9.13;;;4.90;;
41512;SDS011;27244;59.940;30.280;2023-03-23T12:43:50;19.75;;;6.35;;
41512;SDS011;27244;59.940;30.280;2023-03-23T12:49:31;11.10;;;4.90;;
41512;SDS011;27244;59.940;30.280;2023-03-23T12:52:04;12.35;;;5.07;;
41512;SDS011;27244;59.940;30.280;2023-03-23T12:54:38;13.40;;;5.13;;
41512;SDS011;27244;59.940;30.280;2023-03-23T12:57:16;13.05;;;5.78;;
41512;SDS011;27244;59.940;30.280;2023-03-23T12:59:49;12.40;;;4.70;;
41512;SDS011;27244;59.940;30.280;2023-03-23T13:02:21;12.43;;;5.10;;
41512;SDS011;27244;59.940;30.280;2023-03-23T13:04:52;11.98;;;4.63;;
41512;SDS011;27244;59.940;30.280;2023-03-23T13:07:26;13.50;;;4.43;;
41512;SDS011;27244;59.940;30.280;2023-03-23T13:10:00;10.80;;;4.28;;
41512;SDS011;27244;59.940;30.280;2023-03-23T13:12:31;11.57;;;4.43;;
41512;SDS011;27244;59.940;30.280;2023-03-23T13:15:06;9.15;;;3.72;;
41512;SDS011;27244;59.940;30.280;2023-03-23T13:17:44;8.52;;;4.45;;
41512;SDS011;27244;59.940;30.280;2023-03-23T13:20:27;7.68;;;4.25;;
41512;SDS011;27244;59.940;30.280;2023-03-23T13:23:02;8.93;;;3.92;;
41512;SDS011;27244;59.940;30.280;2023-03-23T13:25:40;9.25;;;4.63;;
41512;SDS011;27244;59.940;30.280;2023-03-23T13:28:15;12.02;;;4.60;;
41512;SDS011;27244;59.940;30.280;2023-03-23T13:30:59;7.90;;;4.40;;
41512;SDS011;27244;59.940;30.280;2023-03-23T13:33:32;9.07;;;4.88;;
41512;SDS011;27244;59.940;30.280;2023-03-23T13:36:10;11.00;;;5.47;;
41512;SDS011;27244;59.940;30.280;2023-03-23T13:38:43;8.98;;;5.03;;
41512;SDS011;27244;59.940;30.280;2023-03-23T13:41:14;10.73;;;4.90;;
41512;SDS011;27244;59.940;30.280;2023-03-23T13:43:43;11.13;;;5.93;;
41512;SDS011;27244;59.940;30.280;2023-03-23T13:46:24;8.57;;;4.90;;
41512;SDS011;27244;59.940;30.280;2023-03-23T13:49:03;12.27;;;5.13;;
41512;SDS011;27244;59.940;30.280;2023-03-23T13:51:52;9.45;;;5.35;;
41512;SDS011;27244;59.940;30.280;2023-03-23T13:54:29;7.65;;;4.72;;
41512;SDS011;27244;59.940;30.280;2023-03-23T13:56:59;7.82;;;5.22;;
41512;SDS011;27244;59.940;30.280;2023-03-23T13:59:30;9.20;;;5.03;;
41512;SDS011;27244;59.940;30.280;2023-03-23T14:04:55;8.30;;;5.40;;
41512;SDS011;27244;59.940;30.280;2023-03-23T14:07:25;8.13;;;5.28;;
41512;SDS011;27244;59.940;30.280;2023-03-23T14:09:54;8.68;;;5.32;;
41512;SDS011;27244;59.940;30.280;2023-03-23T14:12:32;7.32;;;5.57;;
41512;SDS011;27244;59.940;30.280;2023-03-23T14:15:00;7.93;;;5.57;;
41512;SDS011;27244;59.940;30.280;2023-03-23T14:17:30;8.07;;;4.93;;
41512;SDS011;27244;59.940;30.280;2023-03-23T14:20:00;8.15;;;5.32;;
41512;SDS011;27244;59.940;30.280;2023-03-23T14:22:37;10.88;;;5.43;;
41512;SDS011;27244;59.940;30.280;2023-03-23T14:25:10;11.13;;;5.97;;
41512;SDS011;27244;59.940;30.280;2023-03-23T14:27:38;10.88;;;5.53;;
41512;SDS011;27244;59.940;30.280;2023-03-23T14:30:07;13.18;;;5.75;;
41512;SDS011;27244;59.940;30.280;2023-03-23T14:32:41;16.90;;;6.97;;
41512;SDS011;27244;59.940;30.280;2023-03-23T14:35:12;10.30;;;6.13;;
41512;SDS011;27244;59.940;30.280;2023-03-23T14:37:45;10.68;;;6.18;;
41512;SDS011;27244;59.940;30.280;2023-03-23T14:40:14;10.90;;;6.85;;
41512;SDS011;27244;59.940;30.280;2023-03-23T14:42:43;9.48;;;6.57;;
41512;SDS011;27244;59.940;30.280;2023-03-23T14:45:15;17.55;;;8.30;;
41512;SDS011;27244;59.940;30.280;2023-03-23T14:47:44;14.27;;;7.50;;
41512;SDS011;27244;59.940;30.280;2023-03-23T14:50:24;13.05;;;7.70;;
41512;SDS011;27244;59.940;30.280;2023-03-23T14:52:57;13.63;;;7.22;;
41512;SDS011;27244;59.940;30.280;2023-03-23T14:55:26;9.90;;;6.78;;
41512;SDS011;27244;59.940;30.280;2023-03-23T14:57:56;9.75;;;6.65;;
41512;SDS011;27244;59.940;30.280;2023-03-23T15:00:35;12.45;;;7.32;;
41512;SDS011;27244;59.940;30.280;2023-03-23T15:03:09;13.32;;;7.32;;
41512;SDS011;27244;59.940;30.280;2023-03-23T15:05:41;10.38;;;7.28;;
41512;SDS011;27244;59.940;30.280;2023-03-23T15:08:14;11.07;;;7.55;;
41512;SDS011;27244;59.940;30.280;2023-03-23T15:10:51;14.80;;;7.78;;
41512;SDS011;27244;59.940;30.280;2023-03-23T15:13:20;11.57;;;8.13;;
41512;SDS011;27244;59.940;30.280;2023-03-23T15:15:47;9.57;;;7.43;;
41512;SDS011;27244;59.940;30.280;2023-03-23T15:21:08;12.98;;;8.68;;
41512;SDS011;27244;59.940;30.280;2023-03-23T15:23:42;12.55;;;8.25;;
41512;SDS011;27244;59.940;30.280;2023-03-23T15:29:02;13.52;;;8.30;;
41512;SDS011;27244;59.940;30.280;2023-03-23T15:31:43;15.18;;;8.82;;
41512;SDS011;27244;59.940;30.280;2023-03-23T15:34:14;14.38;;;8.75;;
41512;SDS011;27244;59.940;30.280;2023-03-23T15:36:45;10.88;;;8.45;;
41512;SDS011;27244;59.940;30.280;2023-03-23T15:39:18;10.82;;;8.10;;
41512;SDS011;27244;59.940;30.280;2023-03-23T15:41:46;14.50;;;8.77;;